Time;durP1;ratioP1;P1;durP2;ratioP2;P2;SDS_P1;SDS_P2;PMS_P1;PMS_P2;Temp;Humidity;BMP_temperature;BMP_pressure;BME280_temperature;BME280_humidity;BME280_pressure;Samples;Min_cycle;Max_cycle;Signal;HPM_P1;HPM_P2
2022/04/14 00:00:09;;;;;;;44.08;20.30;;;;;;;;;;6187969;28;20058;-59
2022/04/14 00:03:30;;;;;;;40.07;17.93;;;;;;;;;;6183028;28;20105;-60
2022/04/14 00:06:31;;;;;;;43.78;17.52;;;;;;;;;;6187345;28;20042;-59
2022/04/14 00:09:35;;;;;;;39.15;17.80;;;;;;;;;;6180133;28;20054;-60
2022/04/14 00:12:35;;;;;;;34.67;16.83;;;;;;;;;;6188760;28;20047;-60
2022/04/14 00:15:36;;;;;;;38.30;18.25;;;;;;;;;;6178052;28;20058;-60
2022/04/14 00:18:36;;;;;;;37.60;17.55;;;;;;;;;;6182692;28;20070;-59
2022/04/14 00:21:37;;;;;;;39.38;17.17;;;;;;;;;;6189545;28;20136;-59
2022/04/14 00:24:38;;;;;;;36.50;17.42;;;;;;;;;;6181793;28;20050;-59
2022/04/14 00:27:39;;;;;;;35.53;16.95;;;;;;;;;;6190905;28;20042;-60
2022/04/14 00:30:39;;;;;;;46.53;20.13;;;;;;;;;;6180190;28;20158;-59
2022/04/14 00:33:40;;;;;;;55.65;23.65;;;;;;;;;;6182591;28;20046;-59
2022/04/14 00:36:40;;;;;;;38.33;18.70;;;;;;;;;;6187585;28;20046;-60
2022/04/14 00:39:41;;;;;;;45.53;18.80;;;;;;;;;;6189554;28;20046;-61
2022/04/14 00:42:42;;;;;;;39.55;18.90;;;;;;;;;;6183118;28;20141;-59
2022/04/14 00:45:43;;;;;;;48.20;20.02;;;;;;;;;;6181341;28;20097;-59
2022/04/14 00:48:44;;;;;;;55.17;23.17;;;;;;;;;;6179750;28;20456;-59
2022/04/14 00:51:45;;;;;;;47.53;20.67;;;;;;;;;;6189661;28;20047;-60
2022/04/14 00:54:45;;;;;;;48.53;21.50;;;;;;;;;;6184340;28;20129;-60
2022/04/14 00:57:47;;;;;;;46.78;20.13;;;;;;;;;;6187112;28;20061;-59
2022/04/14 01:00:49;;;;;;;43.00;19.73;;;;;;;;;;6179636;28;20077;-59
2022/04/14 01:03:51;;;;;;;40.67;19.80;;;;;;;;;;6185460;28;20109;-59
2022/04/14 01:06:52;;;;;;;43.33;18.92;;;;;;;;;;6174215;28;20488;-60
2022/04/14 01:09:54;;;;;;;40.30;19.38;;;;;;;;;;6184088;28;20454;-60
2022/04/14 01:12:54;;;;;;;47.53;20.13;;;;;;;;;;6180012;28;20085;-60
2022/04/14 01:15:59;;;;;;;41.75;19.67;;;;;;;;;;6181661;28;20043;-59
2022/04/14 01:19:00;;;;;;;43.05;19.95;;;;;;;;;;6179369;28;20051;-59
2022/04/14 01:22:15;;;;;;;48.65;20.88;;;;;;;;;;6181658;28;20431;-60
2022/04/14 01:25:16;;;;;;;55.60;23.20;;;;;;;;;;6185672;28;20062;-60
2022/04/14 01:28:18;;;;;;;61.78;24.50;;;;;;;;;;6178943;28;20066;-60
2022/04/14 01:31:18;;;;;;;55.00;23.15;;;;;;;;;;6186981;28;20057;-60
2022/04/14 01:34:19;;;;;;;57.10;22.45;;;;;;;;;;6180136;28;20042;-59
2022/04/14 01:37:19;;;;;;;121.10;36.08;;;;;;;;;;6176192;28;20096;-60
2022/04/14 01:40:20;;;;;;;63.28;25.98;;;;;;;;;;6182664;28;20054;-60
2022/04/14 01:43:21;;;;;;;64.88;25.88;;;;;;;;;;6179150;28;20046;-59
2022/04/14 01:46:22;;;;;;;66.18;24.35;;;;;;;;;;6187553;28;20745;-58
2022/04/14 01:49:22;;;;;;;61.88;24.63;;;;;;;;;;6179486;28;20185;-60
2022/04/14 01:52:23;;;;;;;56.78;23.52;;;;;;;;;;6177592;28;20046;-59
2022/04/14 01:55:24;;;;;;;52.67;23.92;;;;;;;;;;6182237;28;20063;-59
2022/04/14 01:58:25;;;;;;;58.63;24.38;;;;;;;;;;6181672;28;20050;-60
2022/04/14 02:01:26;;;;;;;70.18;28.33;;;;;;;;;;6178638;28;20268;-59
2022/04/14 02:04:27;;;;;;;68.53;26.60;;;;;;;;;;6179328;28;20054;-59
2022/04/14 02:07:27;;;;;;;63.65;24.73;;;;;;;;;;6179124;28;20054;-59
2022/04/14 02:10:28;;;;;;;65.40;26.33;;;;;;;;;;6176576;28;20065;-60
2022/04/14 02:13:32;;;;;;;61.55;26.38;;;;;;;;;;6187569;28;20089;-60
2022/04/14 02:16:33;;;;;;;69.43;26.98;;;;;;;;;;6176081;28;20044;-59
2022/04/14 02:19:34;;;;;;;60.50;25.55;;;;;;;;;;6179533;28;20472;-59
2022/04/14 02:22:41;;;;;;;60.75;26.77;;;;;;;;;;6175712;28;20054;-59
2022/04/14 02:25:42;;;;;;;57.28;26.80;;;;;;;;;;6184090;28;20046;-60
2022/04/14 02:28:43;;;;;;;58.83;26.60;;;;;;;;;;6178279;28;20046;-59
2022/04/14 02:31:43;;;;;;;60.45;26.60;;;;;;;;;;6179495;28;20134;-60
2022/04/14 02:34:44;;;;;;;57.63;26.20;;;;;;;;;;6185395;28;20054;-59
2022/04/14 02:37:44;;;;;;;58.85;27.65;;;;;;;;;;6178908;28;20116;-60
2022/04/14 02:40:45;;;;;;;65.68;28.05;;;;;;;;;;6179235;28;20454;-60
2022/04/14 02:43:47;;;;;;;62.45;27.35;;;;;;;;;;6184871;28;20058;-60
2022/04/14 02:46:48;;;;;;;59.60;27.38;;;;;;;;;;6194923;28;20078;-59
2022/04/14 02:49:49;;;;;;;58.78;26.65;;;;;;;;;;6183459;28;20047;-60
2022/04/14 02:52:50;;;;;;;63.00;27.20;;;;;;;;;;6181379;28;20108;-59
2022/04/14 02:55:51;;;;;;;62.27;28.13;;;;;;;;;;6188862;28;20047;-60
2022/04/14 02:58:51;;;;;;;58.60;26.42;;;;;;;;;;6186285;28;20060;-59
2022/04/14 03:01:52;;;;;;;52.05;23.90;;;;;;;;;;6176020;28;20145;-60
2022/04/14 03:04:53;;;;;;;58.33;25.38;;;;;;;;;;6175794;28;20062;-59
2022/04/14 03:07:54;;;;;;;59.85;27.42;;;;;;;;;;6177327;28;20584;-59
2022/04/14 03:10:55;;;;;;;63.72;27.23;;;;;;;;;;6179152;28;20051;-60
2022/04/14 03:13:55;;;;;;;58.97;27.38;;;;;;;;;;6180423;28;20070;-59
2022/04/14 03:16:57;;;;;;;57.03;25.52;;;;;;;;;;6179887;28;20054;-61
2022/04/14 03:19:57;;;;;;;55.55;22.95;;;;;;;;;;6179195;28;20057;-60
2022/04/14 03:22:58;;;;;;;61.30;25.40;;;;;;;;;;6195706;28;20058;-60
2022/04/14 03:25:59;;;;;;;53.70;25.80;;;;;;;;;;6187377;28;20053;-60
2022/04/14 03:28:59;;;;;;;58.10;25.33;;;;;;;;;;6186616;28;20105;-59
2022/04/14 03:32:00;;;;;;;57.47;26.08;;;;;;;;;;6182801;28;20536;-61
2022/04/14 03:35:04;;;;;;;54.65;25.30;;;;;;;;;;6177701;28;20053;-59
2022/04/14 03:38:05;;;;;;;57.28;25.70;;;;;;;;;;6177496;28;20051;-60
2022/04/14 03:41:07;;;;;;;64.63;25.48;;;;;;;;;;6183865;28;20488;-62
2022/04/14 03:44:07;;;;;;;54.83;24.65;;;;;;;;;;6192700;28;20073;-62
2022/04/14 03:47:08;;;;;;;53.30;24.80;;;;;;;;;;6182577;28;20134;-62
2022/04/14 03:50:09;;;;;;;53.45;25.13;;;;;;;;;;6187690;28;20050;-60
2022/04/14 03:53:10;;;;;;;58.08;23.83;;;;;;;;;;6189638;28;20101;-60
2022/04/14 03:56:11;;;;;;;60.08;24.90;;;;;;;;;;6190416;28;20142;-60
2022/04/14 03:59:13;;;;;;;62.45;25.35;;;;;;;;;;6186249;28;20116;-63
2022/04/14 04:02:14;;;;;;;52.63;23.92;;;;;;;;;;6182615;28;20089;-60
2022/04/14 04:05:14;;;;;;;58.15;24.30;;;;;;;;;;6186422;28;20475;-60
2022/04/14 04:08:15;;;;;;;54.58;24.20;;;;;;;;;;6189092;28;20051;-61
2022/04/14 04:11:16;;;;;;;62.97;26.65;;;;;;;;;;6189405;28;20050;-60
2022/04/14 04:14:16;;;;;;;68.13;27.70;;;;;;;;;;6191709;28;20085;-60
2022/04/14 04:17:17;;;;;;;61.30;27.92;;;;;;;;;;6189347;28;20061;-59
2022/04/14 04:20:18;;;;;;;63.42;27.02;;;;;;;;;;6186897;28;20137;-57
2022/04/14 04:23:19;;;;;;;63.08;26.23;;;;;;;;;;6191726;28;20043;-62
2022/04/14 04:26:20;;;;;;;65.07;26.23;;;;;;;;;;6187895;28;20085;-59
2022/04/14 04:29:20;;;;;;;60.83;25.73;;;;;;;;;;6188042;28;20057;-62
2022/04/14 04:32:21;;;;;;;61.58;27.67;;;;;;;;;;6187559;28;20042;-61
2022/04/14 04:35:22;;;;;;;59.15;26.75;;;;;;;;;;6188469;28;20054;-61
2022/04/14 04:38:22;;;;;;;54.38;24.80;;;;;;;;;;6190675;28;20552;-59
2022/04/14 04:41:23;;;;;;;59.63;25.33;;;;;;;;;;6189258;28;20426;-59
2022/04/14 04:44:23;;;;;;;51.88;23.80;;;;;;;;;;6186655;28;20116;-59
2022/04/14 04:47:24;;;;;;;60.28;24.95;;;;;;;;;;6183509;28;20042;-59
2022/04/14 04:50:25;;;;;;;60.78;24.73;;;;;;;;;;6187007;28;20053;-59
2022/04/14 04:53:26;;;;;;;55.40;24.75;;;;;;;;;;6187263;28;20046;-59
2022/04/14 04:56:26;;;;;;;60.20;26.17;;;;;;;;;;6183584;28;20133;-59
2022/04/14 04:59:27;;;;;;;59.40;25.95;;;;;;;;;;6179511;28;20058;-59
2022/04/14 05:02:28;;;;;;;90.95;37.28;;;;;;;;;;6177825;28;20510;-60
2022/04/14 05:05:28;;;;;;;92.57;36.65;;;;;;;;;;6183003;28;20089;-59
2022/04/14 05:08:29;;;;;;;93.57;40.85;;;;;;;;;;6182260;28;20157;-59
2022/04/14 05:11:30;;;;;;;88.03;40.00;;;;;;;;;;6185629;28;20050;-59
2022/04/14 05:14:30;;;;;;;88.82;37.55;;;;;;;;;;6184464;28;20062;-59
2022/04/14 05:17:31;;;;;;;74.78;32.92;;;;;;;;;;6189884;28;20536;-59
2022/04/14 05:20:31;;;;;;;73.70;32.38;;;;;;;;;;6189058;28;20059;-60
2022/04/14 05:23:32;;;;;;;79.80;31.08;;;;;;;;;;6185501;28;20047;-59
2022/04/14 05:26:33;;;;;;;70.63;29.75;;;;;;;;;;6182961;28;20921;-59
2022/04/14 05:29:35;;;;;;;62.72;29.17;;;;;;;;;;6179637;28;20128;-59
2022/04/14 05:32:37;;;;;;;59.50;28.67;;;;;;;;;;6188120;28;20152;-59
2022/04/14 05:35:38;;;;;;;;;;;;;;;;;;6190136;28;20513;-59
2022/04/14 05:38:38;;;;;;;67.95;28.83;;;;;;;;;;6190741;28;19926;-59
2022/04/14 05:41:39;;;;;;;63.05;26.98;;;;;;;;;;6187835;28;20054;-58
2022/04/14 05:44:40;;;;;;;62.60;26.00;;;;;;;;;;6187902;28;20538;-58
2022/04/14 05:47:40;;;;;;;62.17;28.40;;;;;;;;;;6189446;28;20124;-59
2022/04/14 05:50:42;;;;;;;70.38;31.05;;;;;;;;;;6179334;28;20038;-59
2022/04/14 05:53:43;;;;;;;66.60;28.10;;;;;;;;;;6185999;28;20061;-60
2022/04/14 05:56:43;;;;;;;72.25;28.17;;;;;;;;;;6180144;28;20062;-59
2022/04/14 05:59:44;;;;;;;59.30;25.92;;;;;;;;;;6185500;28;20105;-59
2022/04/14 06:02:45;;;;;;;75.28;29.35;;;;;;;;;;6185215;28;20129;-59
2022/04/14 06:05:45;;;;;;;87.18;31.23;;;;;;;;;;6185424;28;20051;-59
2022/04/14 06:08:46;;;;;;;85.32;29.77;;;;;;;;;;6181064;28;20062;-61
2022/04/14 06:11:47;;;;;;;70.78;29.73;;;;;;;;;;6185237;28;20042;-60
2022/04/14 06:14:49;;;;;;;64.60;27.40;;;;;;;;;;6186907;28;20049;-59
2022/04/14 06:17:50;;;;;;;63.90;26.15;;;;;;;;;;6186937;28;21042;-60
2022/04/14 06:20:53;;;;;;;65.25;26.08;;;;;;;;;;6184532;28;20130;-59
2022/04/14 06:23:56;;;;;;;71.57;27.83;;;;;;;;;;6181571;28;20038;-60
2022/04/14 06:26:56;;;;;;;60.13;24.65;;;;;;;;;;6178694;28;20057;-59
2022/04/14 06:29:57;;;;;;;55.38;24.23;;;;;;;;;;6182769;28;20421;-59
2022/04/14 06:33:05;;;;;;;54.83;23.75;;;;;;;;;;6181511;28;20055;-60
2022/04/14 06:36:06;;;;;;;57.15;23.83;;;;;;;;;;6185402;28;20054;-60
2022/04/14 06:39:12;;;;;;;52.65;25.48;;;;;;;;;;6182775;28;20581;-62
2022/04/14 06:42:12;;;;;;;70.38;28.05;;;;;;;;;;6187487;28;20485;-61
2022/04/14 06:45:13;;;;;;;65.03;26.90;;;;;;;;;;6187397;28;20085;-61
2022/04/14 06:48:14;;;;;;;64.97;26.83;;;;;;;;;;6185088;28;20082;-60
2022/04/14 06:51:15;;;;;;;66.88;27.00;;;;;;;;;;6183303;28;20097;-59
2022/04/14 06:54:17;;;;;;;62.67;26.95;;;;;;;;;;6181838;28;20133;-59
2022/04/14 06:57:19;;;;;;;75.35;29.88;;;;;;;;;;6180961;28;20051;-60
2022/04/14 07:00:21;;;;;;;58.45;26.15;;;;;;;;;;6188280;28;20053;-60
2022/04/14 07:03:26;;;;;;;55.50;25.48;;;;;;;;;;6187047;28;20508;-60
2022/04/14 07:06:26;;;;;;;58.63;25.30;;;;;;;;;;6182629;28;20452;-65
2022/04/14 07:09:32;;;;;;;64.25;28.70;;;;;;;;;;6177877;28;20050;-60
2022/04/14 07:12:32;;;;;;;56.55;25.30;;;;;;;;;;6182004;28;20094;-59
2022/04/14 07:15:33;;;;;;;49.25;23.88;;;;;;;;;;6188104;28;20466;-59
2022/04/14 07:18:34;;;;;;;47.05;23.00;;;;;;;;;;6183970;28;20057;-61
2022/04/14 07:21:34;;;;;;;45.22;19.88;;;;;;;;;;6185977;28;20092;-60
2022/04/14 07:24:35;;;;;;;48.13;21.27;;;;;;;;;;6196036;28;20129;-60
2022/04/14 07:27:36;;;;;;;44.42;20.30;;;;;;;;;;6189518;28;20409;-60
2022/04/14 07:30:38;;;;;;;44.83;20.92;;;;;;;;;;6186454;28;20046;-60
2022/04/14 07:33:40;;;;;;;43.88;20.33;;;;;;;;;;6191176;28;20452;-59
2022/04/14 07:36:40;;;;;;;34.92;17.83;;;;;;;;;;6189074;28;20043;-59
2022/04/14 07:39:41;;;;;;;39.63;18.23;;;;;;;;;;6190787;28;20050;-59
2022/04/14 07:42:43;;;;;;;38.10;18.92;;;;;;;;;;6186333;28;20136;-60
2022/04/14 07:45:45;;;;;;;31.02;16.17;;;;;;;;;;6190728;28;20078;-60
2022/04/14 07:48:46;;;;;;;28.47;15.57;;;;;;;;;;6180004;28;20609;-60
2022/04/14 07:51:46;;;;;;;33.20;16.00;;;;;;;;;;6192338;28;20077;-60
2022/04/14 07:54:47;;;;;;;28.58;15.23;;;;;;;;;;6186489;28;20061;-60
2022/04/14 07:57:50;;;;;;;31.73;14.27;;;;;;;;;;6189519;28;20062;-60
2022/04/14 08:00:50;;;;;;;29.27;14.95;;;;;;;;;;6184287;28;20050;-60
2022/04/14 08:03:51;;;;;;;30.80;14.88;;;;;;;;;;6182695;28;20046;-60
2022/04/14 08:06:52;;;;;;;27.17;13.45;;;;;;;;;;6184368;28;20130;-60
2022/04/14 08:09:53;;;;;;;28.80;14.07;;;;;;;;;;6187991;28;20105;-61
2022/04/14 08:12:54;;;;;;;26.05;13.23;;;;;;;;;;6186625;28;20133;-60
2022/04/14 08:15:55;;;;;;;26.25;13.70;;;;;;;;;;6187486;28;20490;-60
2022/04/14 08:18:55;;;;;;;23.23;12.20;;;;;;;;;;6189193;28;20178;-60
2022/04/14 08:21:56;;;;;;;25.40;13.02;;;;;;;;;;6187411;28;20803;-60
2022/04/14 08:24:57;;;;;;;28.13;13.60;;;;;;;;;;6187680;28;20067;-60
2022/04/14 08:27:59;;;;;;;26.48;13.10;;;;;;;;;;6190129;28;20054;-60
2022/04/14 08:31:00;;;;;;;25.20;12.13;;;;;;;;;;6189806;28;20054;-60
2022/04/14 08:34:03;;;;;;;23.67;11.57;;;;;;;;;;6189457;28;20050;-61
2022/04/14 08:37:04;;;;;;;21.73;10.82;;;;;;;;;;6186434;28;20315;-61
2022/04/14 08:40:10;;;;;;;22.30;10.15;;;;;;;;;;6188644;28;20038;-61
2022/04/14 08:43:10;;;;;;;23.83;11.93;;;;;;;;;;6177619;28;20197;-61
2022/04/14 08:46:12;;;;;;;21.70;10.63;;;;;;;;;;6185518;28;20050;-60
2022/04/14 08:49:16;;;;;;;19.17;9.20;;;;;;;;;;6186875;28;20046;-63
2022/04/14 08:52:18;;;;;;;17.38;9.95;;;;;;;;;;6188143;28;20121;-60
2022/04/14 08:55:18;;;;;;;21.83;10.55;;;;;;;;;;6188552;28;20120;-62
2022/04/14 08:58:26;;;;;;;20.65;10.80;;;;;;;;;;6182509;28;20054;-59
2022/04/14 09:01:27;;;;;;;19.73;10.20;;;;;;;;;;6184743;28;20058;-60
2022/04/14 09:04:28;;;;;;;20.48;10.80;;;;;;;;;;6185931;28;20507;-60
2022/04/14 09:07:29;;;;;;;18.77;9.83;;;;;;;;;;6188033;28;20842;-60
2022/04/14 09:10:30;;;;;;;18.95;10.88;;;;;;;;;;6190558;28;20050;-60
2022/04/14 09:13:31;;;;;;;19.50;10.95;;;;;;;;;;6181766;28;20057;-60
2022/04/14 09:16:33;;;;;;;24.10;11.57;;;;;;;;;;6187881;28;20070;-60
2022/04/14 09:19:34;;;;;;;20.10;11.02;;;;;;;;;;6181036;28;20078;-62
2022/04/14 09:22:35;;;;;;;23.80;10.38;;;;;;;;;;6177353;28;20082;-60
2022/04/14 09:25:36;;;;;;;24.00;10.55;;;;;;;;;;6186059;28;20130;-60
2022/04/14 09:28:38;;;;;;;24.77;10.52;;;;;;;;;;6187105;28;20478;-61
2022/04/14 09:31:49;;;;;;;;;;;;;;;;;;6181650;28;20053;-61
2022/04/14 09:34:51;;;;;;;20.20;9.85;;;;;;;;;;6183371;28;19971;-60
2022/04/14 09:38:13;;;;;;;18.73;11.30;;;;;;;;;;6183412;28;20070;-60
2022/04/14 09:41:38;;;;;;;20.23;10.63;;;;;;;;;;6181023;28;20061;-59
2022/04/14 09:44:38;;;;;;;20.77;11.20;;;;;;;;;;6183663;28;20498;-65
2022/04/14 09:47:39;;;;;;;18.95;11.40;;;;;;;;;;6187969;28;20053;-66
2022/04/14 09:50:47;;;;;;;18.85;10.45;;;;;;;;;;6185830;28;20557;-61
2022/04/14 09:53:48;;;;;;;21.02;11.10;;;;;;;;;;6185815;28;20046;-62
2022/04/14 09:56:51;;;;;;;21.27;11.52;;;;;;;;;;6187141;28;20043;-64
2022/04/14 09:59:52;;;;;;;20.38;11.52;;;;;;;;;;6187194;28;20079;-64
2022/04/14 10:03:08;;;;;;;17.17;10.27;;;;;;;;;;6182203;28;20486;-60
2022/04/14 10:06:08;;;;;;;20.23;11.52;;;;;;;;;;6183815;28;20057;-61
2022/04/14 10:09:26;;;;;;;17.05;9.10;;;;;;;;;;6188021;28;20078;-60
2022/04/14 10:12:29;;;;;;;14.45;8.88;;;;;;;;;;6184163;28;20047;-63
2022/04/14 10:15:31;;;;;;;19.00;10.43;;;;;;;;;;6185453;28;20061;-60
2022/04/14 10:18:32;;;;;;;18.48;9.63;;;;;;;;;;6185900;28;20128;-60
2022/04/14 10:21:34;;;;;;;22.15;10.60;;;;;;;;;;6187170;28;20066;-61
2022/04/14 10:24:35;;;;;;;21.05;11.15;;;;;;;;;;6191124;28;20136;-60
2022/04/14 10:27:36;;;;;;;18.07;10.93;;;;;;;;;;6184622;28;20171;-61
2022/04/14 10:30:37;;;;;;;21.07;11.00;;;;;;;;;;6186073;28;20181;-60
2022/04/14 10:33:39;;;;;;;20.88;10.88;;;;;;;;;;6185303;28;20777;-60
2022/04/14 10:36:42;;;;;;;18.50;9.98;;;;;;;;;;6184613;28;20042;-60
2022/04/14 10:39:46;;;;;;;19.10;10.45;;;;;;;;;;6189820;28;20516;-59
2022/04/14 10:42:52;;;;;;;16.58;9.80;;;;;;;;;;6191978;28;20149;-59
2022/04/14 10:45:55;;;;;;;17.83;9.48;;;;;;;;;;6184571;28;20699;-58
2022/04/14 10:49:15;;;;;;;18.75;10.50;;;;;;;;;;6184249;28;20050;-59
2022/04/14 10:52:24;;;;;;;18.08;10.43;;;;;;;;;;6191757;28;20580;-60
2022/04/14 10:55:45;;;;;;;17.50;9.80;;;;;;;;;;6196631;28;20065;-59
2022/04/14 10:58:53;;;;;;;18.75;8.93;;;;;;;;;;6192149;28;20050;-60
2022/04/14 11:01:55;;;;;;;15.40;9.15;;;;;;;;;;6193876;28;20164;-59
2022/04/14 11:04:56;;;;;;;;;;;;;;;;;;6195816;28;20050;-59
2022/04/14 11:08:19;;;;;;;16.83;8.50;;;;;;;;;;6192071;28;19969;-59
2022/04/14 11:11:20;;;;;;;13.40;8.98;;;;;;;;;;6190858;28;20054;-59
2022/04/14 11:14:24;;;;;;;16.97;9.43;;;;;;;;;;6191301;28;20509;-63
2022/04/14 11:17:30;;;;;;;17.15;8.98;;;;;;;;;;6191827;28;20054;-60
2022/04/14 11:20:33;;;;;;;19.25;10.27;;;;;;;;;;6192443;28;20072;-60
2022/04/14 11:23:35;;;;;;;18.80;9.13;;;;;;;;;;6191057;28;21023;-59
2022/04/14 11:26:36;;;;;;;21.58;9.38;;;;;;;;;;6191516;28;20131;-59
2022/04/14 11:29:37;;;;;;;15.87;9.20;;;;;;;;;;6189442;28;20050;-60
2022/04/14 11:32:41;;;;;;;18.38;9.13;;;;;;;;;;6194298;28;20117;-60
2022/04/14 11:35:46;;;;;;;17.02;8.45;;;;;;;;;;6194189;28;20070;-60
2022/04/14 11:39:06;;;;;;;15.45;9.25;;;;;;;;;;6190998;28;20625;-60
2022/04/14 11:42:11;;;;;;;17.65;9.27;;;;;;;;;;6190498;28;20062;-60
2022/04/14 11:45:11;;;;;;;15.90;8.48;;;;;;;;;;6187863;28;20493;-63
2022/04/14 11:48:13;;;;;;;15.40;8.83;;;;;;;;;;6192783;28;20121;-62
2022/04/14 11:51:16;;;;;;;14.77;8.02;;;;;;;;;;6193398;28;20109;-59
2022/04/14 11:54:34;;;;;;;13.70;7.10;;;;;;;;;;6190917;28;20046;-59
2022/04/14 11:57:37;;;;;;;10.40;6.30;;;;;;;;;;6193778;28;20136;-59
2022/04/14 12:00:42;;;;;;;10.93;6.63;;;;;;;;;;6186889;28;20115;-60
2022/04/14 12:03:43;;;;;;;11.13;6.60;;;;;;;;;;6191493;28;20061;-63
2022/04/14 12:06:56;;;;;;;11.43;6.80;;;;;;;;;;6190250;28;20061;-58
2022/04/14 12:09:59;;;;;;;15.63;7.18;;;;;;;;;;6193147;28;20101;-64
2022/04/14 12:13:07;;;;;;;10.65;6.65;;;;;;;;;;6195782;28;20096;-59
2022/04/14 12:16:10;;;;;;;13.75;8.07;;;;;;;;;;6190696;28;20070;-60
2022/04/14 12:19:10;;;;;;;15.82;7.10;;;;;;;;;;6187403;28;20409;-60
2022/04/14 12:22:12;;;;;;;13.73;7.40;;;;;;;;;;6191712;28;20042;-60
2022/04/14 12:25:13;;;;;;;12.40;7.38;;;;;;;;;;6190234;28;20053;-60
2022/04/14 12:28:14;;;;;;;15.60;6.70;;;;;;;;;;6187348;28;20442;-60
2022/04/14 12:31:20;;;;;;;16.20;7.57;;;;;;;;;;6194654;28;20054;-60
2022/04/14 12:34:22;;;;;;;14.35;7.65;;;;;;;;;;6196899;28;20050;-60
2022/04/14 12:37:33;;;;;;;12.90;6.47;;;;;;;;;;6187355;28;20042;-66
2022/04/14 12:40:34;;;;;;;11.57;6.27;;;;;;;;;;6188521;28;20105;-60
2022/04/14 12:43:38;;;;;;;9.97;5.73;;;;;;;;;;6190619;28;20920;-59
2022/04/14 12:46:39;;;;;;;11.57;5.63;;;;;;;;;;6187689;28;20138;-60
2022/04/14 12:49:41;;;;;;;11.77;5.20;;;;;;;;;;6186923;28;20046;-60
2022/04/14 12:52:55;;;;;;;13.70;6.75;;;;;;;;;;6187190;28;20133;-59
2022/04/14 12:56:13;;;;;;;9.80;4.95;;;;;;;;;;6188871;28;20061;-67
2022/04/14 12:59:15;;;;;;;9.80;5.22;;;;;;;;;;6185162;28;20146;-60
2022/04/14 13:02:16;;;;;;;9.45;5.80;;;;;;;;;;6189698;28;20481;-60
2022/04/14 13:05:17;;;;;;;12.13;6.33;;;;;;;;;;6188469;28;20041;-61
2022/04/14 13:08:30;;;;;;;13.73;6.20;;;;;;;;;;6185137;28;20057;-59
2022/04/14 13:11:45;;;;;;;10.88;5.43;;;;;;;;;;6186663;28;20474;-58
2022/04/14 13:14:47;;;;;;;8.05;5.13;;;;;;;;;;6184940;28;20489;-59
2022/04/14 13:17:49;;;;;;;9.40;5.80;;;;;;;;;;6188544;28;20069;-59
2022/04/14 13:20:49;;;;;;;9.50;5.45;;;;;;;;;;6187930;28;20058;-60
2022/04/14 13:23:50;;;;;;;10.00;5.50;;;;;;;;;;6197213;28;20536;-59
2022/04/14 13:26:53;;;;;;;8.53;5.37;;;;;;;;;;6191356;28;20042;-59
2022/04/14 13:29:53;;;;;;;10.45;5.72;;;;;;;;;;6193527;28;20128;-59
2022/04/14 13:32:54;;;;;;;11.30;5.50;;;;;;;;;;6191450;28;20050;-59
2022/04/14 13:35:55;;;;;;;11.23;6.07;;;;;;;;;;6192332;28;20706;-60
2022/04/14 13:38:55;;;;;;;9.57;5.90;;;;;;;;;;6190422;28;20136;-59
2022/04/14 13:41:56;;;;;;;11.07;5.83;;;;;;;;;;6189434;28;20528;-59
2022/04/14 13:44:57;;;;;;;13.53;6.93;;;;;;;;;;6189025;28;20104;-61
2022/04/14 13:47:58;;;;;;;;;;;;;;;;;;6188325;28;20066;-59
2022/04/14 13:51:00;;;;;;;10.27;5.72;;;;;;;;;;6198742;28;20084;-59
2022/04/14 13:54:03;;;;;;;;;;;;;;;;;;6193572;28;20141;-59
2022/04/14 13:57:03;;;;;;;9.85;5.68;;;;;;;;;;6195649;28;19929;-60
2022/04/14 14:00:06;;;;;;;10.57;5.77;;;;;;;;;;6189383;28;20425;-60
2022/04/14 14:03:08;;;;;;;13.50;6.50;;;;;;;;;;6188354;28;20054;-59
2022/04/14 14:06:09;;;;;;;9.23;6.05;;;;;;;;;;6193083;28;20049;-59
2022/04/14 14:09:09;;;;;;;15.17;6.47;;;;;;;;;;6188911;28;20132;-59
2022/04/14 14:12:10;;;;;;;11.47;5.80;;;;;;;;;;6187011;28;20089;-62
2022/04/14 14:15:11;;;;;;;9.87;6.17;;;;;;;;;;6195163;28;20056;-61
2022/04/14 14:18:12;;;;;;;10.87;6.40;;;;;;;;;;6187586;28;20058;-60
2022/04/14 14:21:12;;;;;;;55.33;8.67;;;;;;;;;;6169499;28;20402;-61
2022/04/14 14:24:14;;;;;;;11.63;6.80;;;;;;;;;;6190899;28;20493;-60
2022/04/14 14:27:14;;;;;;;10.15;6.25;;;;;;;;;;6195387;28;20500;-62
2022/04/14 14:30:15;;;;;;;10.93;6.10;;;;;;;;;;6189933;28;20050;-61
2022/04/14 14:33:16;;;;;;;15.83;6.13;;;;;;;;;;6188826;28;20046;-62
2022/04/14 14:36:17;;;;;;;8.00;5.63;;;;;;;;;;6195428;28;20034;-61
2022/04/14 14:39:19;;;;;;;12.03;6.73;;;;;;;;;;6179215;28;20076;-61
2022/04/14 14:42:21;;;;;;;11.85;6.78;;;;;;;;;;6193321;28;20146;-61
2022/04/14 14:45:22;;;;;;;11.43;6.80;;;;;;;;;;6188750;28;20520;-61
2022/04/14 14:48:23;;;;;;;10.93;6.50;;;;;;;;;;6188564;28;20053;-62
2022/04/14 14:51:23;;;;;;;13.23;7.93;;;;;;;;;;6193089;28;20050;-62
2022/04/14 14:54:25;;;;;;;11.00;6.83;;;;;;;;;;6195096;28;20061;-63
2022/04/14 14:59:12;;;;;;;11.45;7.40;;;;;;;;;;6195432;28;20650;-63
2022/04/14 15:00:47;;;;;;;12.90;8.30;;;;;;;;;;6190665;28;20046;-65
2022/04/14 15:03:47;;;;;;;10.32;6.03;;;;;;;;;;6188682;28;20065;-61
2022/04/14 15:06:50;;;;;;;10.77;6.43;;;;;;;;;;6196867;28;20054;-61
2022/04/14 15:09:50;;;;;;;12.10;6.20;;;;;;;;;;6189040;28;20059;-60
2022/04/14 15:12:52;;;;;;;10.60;6.57;;;;;;;;;;6188393;28;20163;-60
2022/04/14 15:15:56;;;;;;;11.00;6.20;;;;;;;;;;6190463;28;20077;-69
2022/04/14 15:18:57;;;;;;;9.15;6.25;;;;;;;;;;6187967;28;20061;-61
2022/04/14 15:21:57;;;;;;;11.90;6.40;;;;;;;;;;6190812;28;20597;-62
2022/04/14 15:24:58;;;;;;;14.93;6.80;;;;;;;;;;6187956;28;20089;-61
2022/04/14 15:27:59;;;;;;;13.50;6.20;;;;;;;;;;6187558;28;20054;-61
2022/04/14 15:31:01;;;;;;;13.15;8.00;;;;;;;;;;6186078;28;21238;-61
2022/04/14 15:34:01;;;;;;;11.13;5.50;;;;;;;;;;6191205;28;20069;-61
2022/04/14 15:37:02;;;;;;;9.97;6.37;;;;;;;;;;6194639;28;20054;-60
2022/04/14 15:40:06;;;;;;;10.30;5.83;;;;;;;;;;6193481;28;20100;-61
2022/04/14 15:43:06;;;;;;;9.52;5.63;;;;;;;;;;6201557;28;20402;-61
2022/04/14 15:46:07;;;;;;;9.87;5.70;;;;;;;;;;6199682;28;20579;-60
2022/04/14 15:49:08;;;;;;;13.73;7.28;;;;;;;;;;6190362;28;20109;-62
2022/04/14 15:52:08;;;;;;;13.73;7.40;;;;;;;;;;6190559;28;20048;-61
2022/04/14 15:55:09;;;;;;;15.33;6.60;;;;;;;;;;6194206;28;20525;-61
2022/04/14 15:58:10;;;;;;;12.73;8.03;;;;;;;;;;6194407;28;20046;-60
2022/04/14 16:01:11;;;;;;;11.77;6.18;;;;;;;;;;6196010;28;20618;-60
2022/04/14 16:04:12;;;;;;;15.37;8.97;;;;;;;;;;6194639;28;20046;-60
2022/04/14 16:07:13;;;;;;;24.63;15.52;;;;;;;;;;6193140;28;20061;-59
2022/04/14 16:13:33;;;;;;;13.43;7.28;;;;;;;;;;6189639;28;20077;-61
2022/04/14 16:16:34;;;;;;;12.73;7.77;;;;;;;;;;6191973;28;20048;-61
2022/04/14 16:19:36;;;;;;;19.50;10.23;;;;;;;;;;6184631;28;20073;-60
2022/04/14 16:22:36;;;;;;;;;;;;;;;;;;6186100;28;20769;-60
2022/04/14 16:25:37;;;;;;;13.38;6.65;;;;;;;;;;6192220;28;19940;-60
2022/04/14 16:28:39;;;;;;;12.60;8.33;;;;;;;;;;6187531;28;20061;-60
2022/04/14 16:31:40;;;;;;;10.73;7.13;;;;;;;;;;6189090;28;20042;-61
2022/04/14 16:34:41;;;;;;;12.50;7.40;;;;;;;;;;6199552;28;20192;-60
2022/04/14 16:37:42;;;;;;;13.47;9.33;;;;;;;;;;6191606;28;20061;-61
2022/04/14 16:40:42;;;;;;;16.23;9.83;;;;;;;;;;6192785;28;20511;-64
2022/04/14 16:43:43;;;;;;;18.87;11.80;;;;;;;;;;6185263;28;20046;-64
2022/04/14 16:46:45;;;;;;;18.40;11.30;;;;;;;;;;6170721;28;20437;-62
2022/04/14 16:49:46;;;;;;;;;;;;;;;;;;6189638;28;20532;-62
2022/04/14 16:52:47;;;;;;;13.85;8.13;;;;;;;;;;6194937;28;19926;-61
2022/04/14 16:55:50;;;;;;;13.13;8.05;;;;;;;;;;6188544;28;20064;-63
2022/04/14 16:58:50;;;;;;;12.68;6.97;;;;;;;;;;6189731;28;20055;-61
2022/04/14 17:01:51;;;;;;;24.77;16.57;;;;;;;;;;6188240;28;20084;-60
2022/04/14 17:04:51;;;;;;;28.03;15.93;;;;;;;;;;6187755;28;20050;-60
2022/04/14 17:07:52;;;;;;;11.53;7.77;;;;;;;;;;6186917;28;20049;-61
2022/04/14 17:10:53;;;;;;;19.00;12.13;;;;;;;;;;6175442;28;20054;-61
2022/04/14 17:13:54;;;;;;;19.17;9.97;;;;;;;;;;6190034;28;20120;-64
2022/04/14 17:16:56;;;;;;;18.60;9.57;;;;;;;;;;6191663;28;20963;-61
2022/04/14 17:19:57;;;;;;;;;;;;;;;;;;6190517;28;20133;-65
2022/04/14 17:26:16;;;;;;;14.60;8.35;;;;;;;;;;6191166;28;20054;-60
2022/04/14 17:29:18;;;;;;;22.77;13.17;;;;;;;;;;6190891;28;20050;-60
2022/04/14 17:32:19;;;;;;;14.02;8.68;;;;;;;;;;6190382;28;20780;-60
2022/04/14 17:35:20;;;;;;;15.13;7.47;;;;;;;;;;6189608;28;20046;-60
2022/04/14 17:38:20;;;;;;;22.87;12.60;;;;;;;;;;6191901;28;20041;-60
2022/04/14 17:41:21;;;;;;;23.33;10.63;;;;;;;;;;6193026;28;20045;-60
2022/04/14 17:44:22;;;;;;;20.03;12.50;;;;;;;;;;6189704;28;20112;-60
2022/04/14 17:47:22;;;;;;;27.43;14.47;;;;;;;;;;6188508;28;20480;-60
2022/04/14 17:50:23;;;;;;;49.03;23.90;;;;;;;;;;6193199;28;20102;-60
2022/04/14 17:53:24;;;;;;;42.47;22.23;;;;;;;;;;6191389;28;20050;-59
2022/04/14 17:56:24;;;;;;;34.50;17.53;;;;;;;;;;6186824;28;20746;-61